Time;durP1;ratioP1;P1;durP2;ratioP2;P2;SDS_P1;SDS_P2;PMS_P1;PMS_P2;Temp;Humidity;BMP_temperature;BMP_pressure;BME280_temperature;BME280_humidity;BME280_pressure;Samples;Min_cycle;Max_cycle;Signal;HPM_P1;HPM_P2
2022/06/19 00:01:38;;;;;;;6.28;3.25;;;28.40;95.00;;;;;;1889498;76;21103;-84
2022/06/19 00:04:09;;;;;;;4.45;2.65;;;28.40;95.10;;;;;;1853952;77;21069;-84
2022/06/19 00:06:40;;;;;;;7.03;2.60;;;28.40;95.00;;;;;;1865235;76;21225;-84
2022/06/19 00:09:11;;;;;;;10.70;3.17;;;28.40;94.90;;;;;;1896288;74;21100;-84
2022/06/19 00:11:43;;;;;;;6.65;2.75;;;28.50;94.70;;;;;;1856252;76;21107;-83
2022/06/19 00:14:34;;;;;;;6.72;2.52;;;28.50;94.80;;;;;;1886044;75;21172;-84
2022/06/19 00:17:07;;;;;;;5.00;2.17;;;28.50;94.80;;;;;;1883539;74;21117;-84
2022/06/19 00:19:38;;;;;;;4.47;2.40;;;28.60;94.70;;;;;;1863707;76;21190;-83
2022/06/19 00:22:09;;;;;;;4.72;2.37;;;28.60;94.80;;;;;;1859403;76;21107;-83
2022/06/19 00:24:40;;;;;;;6.30;2.98;;;28.50;94.60;;;;;;1896471;74;21107;-83
2022/06/19 00:27:11;;;;;;;3.67;2.33;;;28.60;94.80;;;;;;1860761;76;21166;-83
2022/06/19 00:29:42;;;;;;;6.40;3.05;;;28.60;94.80;;;;;;1894569;74;21142;-84
2022/06/19 00:32:13;;;;;;;5.80;3.15;;;28.60;95.00;;;;;;1889172;76;21603;-84
2022/06/19 00:34:44;;;;;;;9.40;3.30;;;28.60;95.00;;;;;;1877407;76;21235;-83
2022/06/19 00:37:15;;;;;;;7.55;3.55;;;28.70;94.90;;;;;;1878516;76;21076;-84
2022/06/19 00:39:47;;;;;;;4.90;2.87;;;28.70;94.80;;;;;;1865134;76;21123;-83
2022/06/19 00:42:18;;;;;;;4.15;2.83;;;28.70;94.70;;;;;;1896871;75;21155;-83
2022/06/19 00:44:49;;;;;;;5.08;2.77;;;28.70;94.50;;;;;;1880193;76;21848;-83
2022/06/19 00:47:22;;;;;;;5.85;2.92;;;28.70;94.30;;;;;;1884367;76;21564;-83
2022/06/19 00:49:55;;;;;;;5.47;2.85;;;28.80;94.20;;;;;;1862352;76;21564;-83
2022/06/19 00:52:29;;;;;;;6.42;2.95;;;28.80;94.10;;;;;;1849983;77;21619;-83
2022/06/19 00:55:02;;;;;;;5.53;2.62;;;28.80;94.20;;;;;;1868881;75;21113;-84
2022/06/19 00:57:35;;;;;;;7.85;2.98;;;28.80;94.30;;;;;;1891520;74;21516;-84
2022/06/19 01:00:09;;;;;;;4.40;2.72;;;28.80;94.40;;;;;;1871533;76;21661;-84
2022/06/19 01:02:41;;;;;;;7.30;3.17;;;28.90;94.30;;;;;;1900792;74;21076;-83
2022/06/19 01:05:15;;;;;;;5.28;2.75;;;28.90;94.30;;;;;;1871625;75;21653;-84
2022/06/19 01:07:47;;;;;;;6.30;2.90;;;29.00;94.00;;;;;;1889420;76;21170;-84
2022/06/19 01:10:18;;;;;;;3.87;2.60;;;29.10;94.00;;;;;;1863220;76;21163;-85
2022/06/19 01:12:49;;;;;;;6.97;3.30;;;29.20;94.00;;;;;;1865403;76;21159;-83
2022/06/19 01:15:22;;;;;;;8.08;2.92;;;29.30;93.90;;;;;;1871482;76;21100;-84
2022/06/19 01:17:56;;;;;;;5.35;2.50;;;29.40;93.50;;;;;;1855485;77;21213;-83
2022/06/19 01:20:29;;;;;;;7.15;3.33;;;29.50;93.50;;;;;;1869189;76;21155;-84
2022/06/19 01:23:02;;;;;;;5.55;2.35;;;29.60;93.30;;;;;;1886081;74;21096;-85
2022/06/19 01:25:36;;;;;;;4.92;2.72;;;29.70;92.90;;;;;;1882339;76;21263;-85
2022/06/19 01:30:44;;;;;;;5.12;2.60;;;29.90;92.70;;;;;;1869726;76;21162;-83
2022/06/19 01:33:17;;;;;;;6.80;2.52;;;30.00;92.50;;;;;;1854028;76;21167;-84
2022/06/19 01:35:50;;;;;;;5.75;2.65;;;30.10;92.20;;;;;;1871447;76;21103;-84
2022/06/19 01:38:24;;;;;;;7.47;2.72;;;30.20;92.00;;;;;;1889427;74;21118;-84
2022/06/19 01:41:00;;;;;;;4.58;2.45;;;30.30;91.60;;;;;;1887988;74;21175;-84
2022/06/19 01:43:31;;;;;;;8.15;3.20;;;30.40;91.60;;;;;;1837988;77;21569;-84
2022/06/19 01:46:04;;;;;;;5.12;2.12;;;30.60;91.00;;;;;;1868865;76;21150;-83
2022/06/19 01:48:35;;;;;;;5.25;2.47;;;30.70;90.70;;;;;;1890105;76;21887;-84
2022/06/19 01:51:08;;;;;;;3.60;1.90;;;30.70;90.60;;;;;;1886992;74;21186;-83
2022/06/19 01:53:43;;;;;;;4.53;2.45;;;30.90;90.20;;;;;;1851060;75;21139;-84
2022/06/19 01:56:14;;;;;;;5.78;2.22;;;31.00;88.50;;;;;;1882757;76;21135;-84
2022/06/19 01:58:48;;;;;;;6.92;2.50;;;31.10;89.00;;;;;;1890616;74;21065;-83
2022/06/19 02:01:19;;;;;;;6.15;2.65;;;31.20;89.50;;;;;;1909183;73;21069;-84
2022/06/19 02:03:52;;;;;;;3.67;1.98;;;31.30;88.30;;;;;;1861591;74;21143;-86
2022/06/19 02:06:26;;;;;;;5.67;2.42;;;31.40;86.40;;;;;;1850652;74;21143;-85
2022/06/19 02:08:57;;;;;;;5.25;2.42;;;31.50;85.10;;;;;;1902667;73;21109;-85
2022/06/19 02:11:31;;;;;;;4.03;2.10;;;31.60;84.70;;;;;;1866662;74;21119;-85
2022/06/19 02:14:04;;;;;;;4.75;1.82;;;31.70;84.70;;;;;;1865337;73;21126;-84
2022/06/19 02:16:40;;;;;;;4.62;1.98;;;31.80;82.00;;;;;;1852090;73;21096;-85
2022/06/19 02:19:11;;;;;;;5.65;2.05;;;31.80;83.70;;;;;;1867243;74;21159;-86
2022/06/19 02:21:44;;;;;;;7.05;2.12;;;31.90;84.60;;;;;;1849674;76;21219;-87
2022/06/19 02:24:19;;;;;;;2.85;1.65;;;32.00;83.80;;;;;;1861172;76;21209;-86
2022/06/19 02:26:51;;;;;;;2.72;1.70;;;32.10;83.10;;;;;;1882452;76;21178;-86
2022/06/19 02:29:22;;;;;;;4.85;1.70;;;32.20;82.20;;;;;;1894204;74;21192;-83
2022/06/19 02:31:56;;;;;;;4.70;2.20;;;32.20;81.20;;;;;;1846469;76;21143;-87
2022/06/19 02:34:30;;;;;;;3.70;1.40;;;32.30;79.60;;;;;;1907941;74;21222;-83
2022/06/19 02:37:03;;;;;;;2.95;1.50;;;32.30;78.90;;;;;;1886798;74;21278;-84
2022/06/19 02:39:37;;;;;;;;;;;32.30;79.40;;;;;;1892829;74;21126;-86
2022/06/19 02:42:14;;;;;;;3.17;1.10;;;32.30;79.80;;;;;;1860176;75;20129;-87
2022/06/19 02:44:47;;;;;;;5.80;1.50;;;32.40;77.20;;;;;;1834934;77;21184;-85
2022/06/19 02:47:19;;;;;;;2.45;1.30;;;32.40;77.50;;;;;;1917437;73;21138;-84
2022/06/19 02:49:50;;;;;;;2.77;1.32;;;32.40;78.00;;;;;;1917220;75;21188;-85
2022/06/19 02:52:22;;;;;;;5.08;1.77;;;32.50;78.60;;;;;;1915312;75;21187;-86
2022/06/19 02:54:53;;;;;;;3.90;1.60;;;32.60;78.80;;;;;;1914699;74;21121;-85
2022/06/19 02:57:25;;;;;;;3.95;1.50;;;32.60;78.90;;;;;;1913957;75;21195;-85
2022/06/19 02:59:57;;;;;;;3.58;1.50;;;32.80;77.90;;;;;;1870821;75;21151;-85
2022/06/19 03:02:28;;;;;;;2.67;1.42;;;32.80;79.30;;;;;;1851433;77;21191;-85
2022/06/19 03:05:02;;;;;;;2.70;1.37;;;32.90;78.60;;;;;;1870241;75;21098;-85
2022/06/19 03:07:33;;;;;;;3.55;1.62;;;33.00;77.50;;;;;;1867618;76;21187;-85
2022/06/19 03:10:04;;;;;;;3.85;1.50;;;33.00;79.20;;;;;;1868059;76;21199;-84
2022/06/19 03:12:41;;;;;;;4.62;1.90;;;33.10;79.10;;;;;;1900363;75;21200;-84
2022/06/19 03:15:32;;;;;;;3.27;1.62;;;33.20;78.70;;;;;;1877911;76;21158;-84
2022/06/19 03:18:04;;;;;;;3.60;1.62;;;33.30;76.60;;;;;;1862500;76;21252;-84
2022/06/19 03:20:41;;;;;;;3.70;1.45;;;33.20;77.50;;;;;;1864748;77;21599;-85
2022/06/19 03:23:09;;;;;;;3.87;1.42;;;33.20;78.30;;;;;;1898302;75;21100;-84
2022/06/19 03:25:40;;;;;;;5.78;1.77;;;33.30;76.90;;;;;;1892246;74;21130;-84
2022/06/19 03:28:13;;;;;;;4.17;1.80;;;33.40;76.40;;;;;;1887653;75;21208;-86
2022/06/19 03:30:44;;;;;;;3.87;2.05;;;33.50;78.30;;;;;;1860473;76;21181;-84
2022/06/19 03:33:27;;;;;;;2.62;1.35;;;33.50;77.40;;;;;;1886554;75;21145;-84
2022/06/19 03:35:59;;;;;;;6.45;1.75;;;33.60;77.50;;;;;;1882939;76;21186;-85
2022/06/19 03:38:30;;;;;;;3.40;1.70;;;33.60;76.90;;;;;;1889341;75;21186;-84
2022/06/19 03:41:01;;;;;;;3.62;1.50;;;33.60;76.30;;;;;;1887547;76;21111;-84
2022/06/19 03:43:33;;;;;;;4.65;1.45;;;33.70;77.40;;;;;;1885810;76;21271;-84
2022/06/19 03:46:12;;;;;;;3.45;1.72;;;33.70;75.10;;;;;;1868473;75;21213;-84
2022/06/19 03:48:40;;;;;;;2.60;1.50;;;33.70;76.50;;;;;;1908996;74;21128;-84
2022/06/19 03:51:12;;;;;;;5.10;1.72;;;33.80;74.60;;;;;;1895992;75;21210;-84
2022/06/19 03:53:45;;;;;;;4.37;1.65;;;33.80;75.30;;;;;;1897441;74;21155;-84
2022/06/19 03:56:19;;;;;;;2.55;1.57;;;33.90;74.90;;;;;;1923632;73;21619;-87
2022/06/19 03:58:51;;;;;;;3.95;1.60;;;34.00;75.00;;;;;;1901028;73;21229;-85
2022/06/19 04:01:24;;;;;;;2.40;1.52;;;34.10;75.00;;;;;;1900263;75;21226;-85
2022/06/19 04:03:57;;;;;;;3.12;1.55;;;34.10;75.20;;;;;;1865846;77;21141;-84
2022/06/19 04:06:31;;;;;;;4.05;1.30;;;34.20;73.70;;;;;;1899579;75;21152;-84
2022/06/19 04:09:04;;;;;;;4.85;1.70;;;34.20;76.00;;;;;;1899616;75;21155;-85
2022/06/19 04:11:35;;;;;;;4.03;1.40;;;34.20;74.90;;;;;;1869836;76;21172;-85
2022/06/19 04:14:06;;;;;;;3.90;1.70;;;34.30;74.00;;;;;;1911388;75;21141;-86
2022/06/19 04:16:37;;;;;;;2.30;1.35;;;34.30;75.00;;;;;;1914339;74;21078;-85
2022/06/19 04:19:08;;;;;;;2.98;1.30;;;34.40;75.00;;;;;;1926380;73;21631;-85
2022/06/19 04:21:42;;;;;;;2.98;1.40;;;34.50;73.80;;;;;;1916055;75;21197;-85
2022/06/19 04:24:15;;;;;;;6.17;1.70;;;34.50;74.30;;;;;;1887841;75;21210;-84
2022/06/19 04:26:47;;;;;;;3.60;1.40;;;34.60;72.60;;;;;;1863575;75;21176;-87
2022/06/19 04:29:22;;;;;;;8.23;2.15;;;34.70;70.90;;;;;;1869678;75;21178;-84
2022/06/19 04:31:59;;;;;;;2.65;1.40;;;34.60;70.70;;;;;;1886809;73;21176;-84
2022/06/19 04:34:30;;;;;;;2.10;1.55;;;34.60;70.00;;;;;;1913979;73;21176;-85
2022/06/19 04:37:01;;;;;;;3.20;1.50;;;34.60;70.60;;;;;;1916461;73;21159;-85
2022/06/19 04:39:33;;;;;;;2.45;1.10;;;34.60;69.70;;;;;;1883127;75;21200;-84
2022/06/19 04:42:08;;;;;;;3.83;1.50;;;34.60;67.50;;;;;;1908173;74;21624;-86
2022/06/19 04:44:39;;;;;;;4.30;1.30;;;34.70;67.90;;;;;;1883931;76;21147;-85
2022/06/19 04:47:10;;;;;;;2.58;1.50;;;34.80;69.80;;;;;;1894870;74;21151;-84
2022/06/19 04:49:41;;;;;;;2.92;1.32;;;34.90;69.70;;;;;;1904045;74;21624;-84
2022/06/19 04:52:12;;;;;;;3.22;1.70;;;34.90;68.10;;;;;;1865856;76;21100;-85
2022/06/19 04:54:44;;;;;;;3.92;1.20;;;34.90;69.70;;;;;;1878034;76;21206;-84
2022/06/19 04:57:15;;;;;;;3.35;1.40;;;34.80;67.70;;;;;;1873309;76;21594;-84
2022/06/19 04:59:46;;;;;;;2.62;1.42;;;34.70;68.50;;;;;;1849913;76;21635;-84
2022/06/19 05:02:17;;;;;;;2.75;1.45;;;34.70;67.70;;;;;;1851977;76;21151;-84
2022/06/19 05:04:50;;;;;;;3.30;1.42;;;34.70;67.70;;;;;;1886807;76;21587;-84
2022/06/19 05:07:21;;;;;;;4.28;1.70;;;34.80;69.00;;;;;;1886665;76;21088;-84
2022/06/19 05:09:52;;;;;;;3.75;1.70;;;34.90;69.40;;;;;;1884960;76;21625;-84
2022/06/19 05:12:23;;;;;;;4.37;1.82;;;35.00;69.30;;;;;;1891163;75;21183;-84
2022/06/19 05:14:54;;;;;;;4.10;1.70;;;35.00;68.40;;;;;;1848951;76;21203;-83
2022/06/19 05:17:25;;;;;;;3.17;1.35;;;35.10;67.40;;;;;;1827332;78;21119;-84
2022/06/19 05:19:56;;;;;;;2.85;1.40;;;35.10;67.90;;;;;;1897869;74;21158;-85
2022/06/19 05:22:27;;;;;;;3.87;1.75;;;35.10;68.10;;;;;;1908845;74;21691;-84
2022/06/19 05:24:58;;;;;;;3.15;1.60;;;35.20;68.80;;;;;;1871949;75;21091;-84
2022/06/19 05:27:29;;;;;;;4.30;1.57;;;35.30;68.20;;;;;;1867219;76;21202;-84
2022/06/19 05:29:59;;;;;;;2.83;1.40;;;35.40;68.60;;;;;;1887845;75;21189;-84
2022/06/19 05:32:30;;;;;;;1.95;1.20;;;35.40;68.20;;;;;;1893168;74;21161;-85
2022/06/19 05:35:01;;;;;;;5.55;1.50;;;35.50;67.30;;;;;;1862120;76;21176;-85
2022/06/19 05:37:33;;;;;;;3.08;1.35;;;35.50;67.30;;;;;;1900151;75;21657;-85
2022/06/19 05:40:04;;;;;;;3.80;1.40;;;35.40;65.60;;;;;;1880512;76;21820;-84
2022/06/19 05:42:35;;;;;;;6.35;1.85;;;35.40;65.00;;;;;;1898361;75;21213;-84
2022/06/19 05:45:07;;;;;;;3.42;1.32;;;35.40;65.30;;;;;;1893796;75;21134;-85
2022/06/19 05:47:38;;;;;;;4.67;1.52;;;35.40;68.00;;;;;;1857380;76;21232;-83
2022/06/19 05:50:10;;;;;;;2.65;1.25;;;35.40;65.60;;;;;;1890599;76;21072;-85
2022/06/19 05:52:41;;;;;;;4.05;1.32;;;35.40;66.00;;;;;;1857108;77;21232;-85
2022/06/19 05:55:13;;;;;;;2.67;1.27;;;35.40;65.50;;;;;;1890375;76;21151;-83
2022/06/19 05:57:44;;;;;;;4.62;0.95;;;35.30;66.00;;;;;;1857851;76;21174;-83
2022/06/19 06:00:17;;;;;;;4.37;1.45;;;35.20;65.20;;;;;;1856014;76;21056;-84
2022/06/19 06:02:48;;;;;;;3.12;1.50;;;35.30;65.20;;;;;;1857134;77;21214;-85
2022/06/19 06:05:19;;;;;;;2.27;1.25;;;35.30;66.00;;;;;;1891834;76;21596;-84
2022/06/19 06:07:50;;;;;;;4.20;1.20;;;35.40;64.30;;;;;;1857750;76;21217;-85
2022/06/19 06:10:21;;;;;;;2.75;1.50;;;35.30;63.40;;;;;;1892885;75;21111;-85
2022/06/19 06:12:52;;;;;;;2.70;1.40;;;35.30;65.60;;;;;;1890011;75;21238;-85
2022/06/19 06:15:24;;;;;;;2.17;1.12;;;35.30;65.50;;;;;;1885979;76;21143;-86
2022/06/19 06:18:00;;;;;;;2.02;1.02;;;35.30;64.60;;;;;;1873269;76;21127;-85
2022/06/19 06:20:33;;;;;;;2.95;1.40;;;35.30;65.20;;;;;;1915557;74;21048;-86
2022/06/19 06:23:17;;;;;;;2.40;1.20;;;35.30;65.10;;;;;;1890352;75;21196;-86
2022/06/19 06:25:48;;;;;;;1.98;1.00;;;35.30;63.20;;;;;;1847397;76;21115;-85
2022/06/19 06:28:19;;;;;;;3.35;1.30;;;35.20;63.00;;;;;;1899299;75;21131;-85
2022/06/19 06:30:50;;;;;;;2.00;1.35;;;35.20;64.90;;;;;;1864380;76;21200;-85
2022/06/19 06:33:21;;;;;;;3.30;1.35;;;35.20;65.10;;;;;;1894024;75;21559;-86
2022/06/19 06:35:52;;;;;;;2.87;1.30;;;35.30;65.50;;;;;;1856556;76;21167;-85
2022/06/19 06:38:25;;;;;;;2.87;1.20;;;35.40;64.80;;;;;;1884821;76;21143;-85
2022/06/19 06:40:56;;;;;;;3.83;1.40;;;35.40;65.30;;;;;;1892784;75;21131;-85
2022/06/19 06:43:28;;;;;;;3.60;1.20;;;35.50;64.40;;;;;;1898470;75;21600;-85
2022/06/19 06:46:06;;;;;;;3.37;1.50;;;35.50;62.90;;;;;;1898662;75;21234;-83
2022/06/19 06:48:34;;;;;;;2.10;1.35;;;35.40;63.10;;;;;;1867161;76;21590;-85
2022/06/19 06:51:07;;;;;;;3.35;1.17;;;35.40;62.90;;;;;;1911870;75;21740;-86
2022/06/19 06:53:41;;;;;;;4.58;1.50;;;35.30;64.10;;;;;;1898718;75;21104;-84
2022/06/19 06:56:12;;;;;;;2.50;1.40;;;35.30;64.90;;;;;;1886478;75;21114;-83
2022/06/19 06:58:43;;;;;;;2.37;1.10;;;35.30;63.90;;;;;;1885536;76;21135;-84
2022/06/19 07:01:17;;;;;;;2.45;1.22;;;35.30;64.20;;;;;;1850253;77;21177;-83
2022/06/19 07:03:55;;;;;;;2.92;1.30;;;35.20;63.50;;;;;;1850088;77;21267;-84
2022/06/19 07:06:25;;;;;;;2.47;1.10;;;35.20;64.10;;;;;;1889289;75;21155;-86
2022/06/19 07:08:56;;;;;;;3.40;1.40;;;35.20;64.50;;;;;;1860630;76;21116;-84
2022/06/19 07:11:40;;;;;;;1.80;1.05;;;35.20;64.60;;;;;;1881413;76;21120;-85
2022/06/19 07:14:11;;;;;;;2.15;1.00;;;35.30;65.50;;;;;;1880103;76;21452;-84
2022/06/19 07:16:42;;;;;;;3.02;1.37;;;35.40;63.80;;;;;;1899755;75;21144;-86
2022/06/19 07:19:15;;;;;;;3.05;1.60;;;35.40;64.60;;;;;;1882487;75;21233;-83
2022/06/19 07:21:50;;;;;;;2.67;1.50;;;35.40;64.90;;;;;;1854887;76;21178;-84
2022/06/19 07:24:21;;;;;;;3.92;1.10;;;35.30;64.40;;;;;;1890839;74;21603;-84
2022/06/19 07:26:52;;;;;;;2.87;1.40;;;35.30;63.90;;;;;;1894498;74;21156;-85
2022/06/19 07:29:23;;;;;;;3.83;1.47;;;35.20;65.30;;;;;;1856726;76;21626;-84
2022/06/19 07:31:54;;;;;;;3.47;1.82;;;35.20;64.70;;;;;;1916361;74;21080;-86
2022/06/19 07:34:25;;;;;;;5.05;1.92;;;35.20;63.10;;;;;;1930570;74;21091;-85
2022/06/19 07:36:57;;;;;;;4.22;1.60;;;35.30;63.80;;;;;;1891339;74;21296;-85
2022/06/19 07:39:28;;;;;;;2.27;1.20;;;35.30;64.20;;;;;;1924592;74;21283;-85
2022/06/19 07:42:01;;;;;;;4.90;1.42;;;35.30;64.50;;;;;;1903712;74;21701;-85
2022/06/19 07:44:31;;;;;;;2.70;1.40;;;35.30;63.70;;;;;;1886295;75;21159;-84
2022/06/19 07:52:10;;;;;;;1.85;1.00;;;35.40;60.20;;;;;;1874715;76;21136;-85
2022/06/19 07:54:41;;;;;;;4.90;1.00;;;35.30;62.30;;;;;;1893176;74;21587;-85
2022/06/19 07:57:12;;;;;;;2.33;0.90;;;35.40;61.20;;;;;;1896655;74;21595;-86
2022/06/19 07:59:43;;;;;;;2.65;1.25;;;35.40;59.60;;;;;;1874779;76;21091;-85
2022/06/19 08:02:14;;;;;;;2.65;1.02;;;35.40;60.20;;;;;;1883271;76;21174;-85
2022/06/19 08:04:44;;;;;;;4.20;1.35;;;35.40;60.10;;;;;;1887314;76;21140;-86
2022/06/19 08:07:17;;;;;;;3.33;1.90;;;35.40;60.40;;;;;;1889360;76;21561;-85
2022/06/19 08:09:48;;;;;;;2.12;0.82;;;35.40;59.50;;;;;;1894176;74;21099;-84
2022/06/19 08:12:20;;;;;;;1.77;0.82;;;35.40;59.10;;;;;;1892718;74;21886;-84
2022/06/19 08:14:51;;;;;;;2.98;1.27;;;35.40;59.30;;;;;;1864883;75;21124;-85
2022/06/19 08:17:22;;;;;;;5.22;1.37;;;35.50;59.80;;;;;;1855321;76;21652;-85
2022/06/19 08:19:54;;;;;;;2.65;1.20;;;35.50;60.20;;;;;;1890087;76;21229;-85
2022/06/19 08:22:25;;;;;;;2.40;1.00;;;35.50;59.90;;;;;;1854591;76;21195;-85
2022/06/19 08:24:56;;;;;;;2.50;1.00;;;35.50;59.00;;;;;;1890612;76;21628;-86
2022/06/19 08:27:27;;;;;;;2.25;0.88;;;35.40;59.30;;;;;;1891005;74;21202;-85
2022/06/19 08:29:59;;;;;;;3.67;1.32;;;35.40;59.40;;;;;;1909830;74;21157;-84
2022/06/19 08:32:33;;;;;;;3.85;1.45;;;35.40;61.00;;;;;;1828917;75;21151;-85
2022/06/19 08:35:04;;;;;;;2.83;1.30;;;35.30;61.70;;;;;;1863509;75;21143;-85
2022/06/19 08:37:36;;;;;;;3.95;1.05;;;35.40;62.50;;;;;;1848591;75;21115;-85
2022/06/19 08:40:09;;;;;;;3.92;1.10;;;35.40;61.30;;;;;;1874246;75;21215;-82
2022/06/19 08:42:43;;;;;;;2.65;0.90;;;35.40;60.90;;;;;;1868326;75;21332;-86
2022/06/19 08:45:16;;;;;;;3.67;1.72;;;35.40;60.60;;;;;;1909641;73;21050;-85
2022/06/19 08:47:50;;;;;;;4.30;1.60;;;35.40;60.60;;;;;;1896016;74;21176;-84
2022/06/19 08:50:23;;;;;;;2.52;1.02;;;35.30;60.60;;;;;;1871562;75;21065;-86
2022/06/19 08:52:59;;;;;;;2.17;1.10;;;35.30;59.50;;;;;;1868256;75;21159;-85
2022/06/19 08:55:31;;;;;;;2.92;1.17;;;35.30;60.50;;;;;;1866263;76;21714;-85
2022/06/19 08:58:04;;;;;;;1.77;0.90;;;35.20;60.50;;;;;;1874574;76;21088;-84
2022/06/19 09:00:37;;;;;;;4.67;2.90;;;35.20;60.30;;;;;;1872945;76;21596;-85
2022/06/19 09:03:11;;;;;;;3.60;1.10;;;35.20;60.50;;;;;;1877850;75;21164;-84
2022/06/19 09:05:45;;;;;;;2.52;1.10;;;35.10;60.40;;;;;;1883121;75;21114;-85
2022/06/19 09:08:24;;;;;;;2.83;1.80;;;35.10;60.60;;;;;;1860893;76;21200;-86
2022/06/19 09:10:57;;;;;;;2.17;0.90;;;35.20;60.60;;;;;;1863549;76;21095;-85
2022/06/19 09:13:35;;;;;;;3.62;0.90;;;35.20;60.80;;;;;;1881126;75;21179;-85
2022/06/19 09:16:09;;;;;;;3.30;1.65;;;35.20;62.60;;;;;;1895095;75;21081;-85
2022/06/19 09:18:42;;;;;;;2.12;0.90;;;35.10;61.80;;;;;;1890583;75;21092;-85
2022/06/19 09:21:16;;;;;;;2.95;1.00;;;35.10;62.30;;;;;;1866985;75;21163;-84
2022/06/19 09:23:49;;;;;;;4.87;1.57;;;35.10;61.90;;;;;;1896231;74;21176;-84
2022/06/19 09:26:23;;;;;;;3.22;1.90;;;35.00;64.10;;;;;;1891939;73;21115;-84
2022/06/19 09:28:56;;;;;;;3.95;1.77;;;35.00;64.80;;;;;;1882573;74;21168;-84
2022/06/19 09:31:29;;;;;;;4.80;2.27;;;34.90;65.70;;;;;;1883661;74;21179;-83
2022/06/19 09:34:03;;;;;;;4.97;2.08;;;34.80;64.90;;;;;;1895243;74;21072;-85
2022/06/19 09:36:36;;;;;;;5.08;1.67;;;34.70;65.50;;;;;;1845065;76;21155;-85
2022/06/19 09:39:12;;;;;;;5.40;2.30;;;34.50;65.30;;;;;;1860145;76;21572;-85
2022/06/19 09:41:46;;;;;;;5.00;1.45;;;34.40;66.00;;;;;;1855556;76;21139;-85
2022/06/19 09:44:21;;;;;;;3.62;2.00;;;34.40;66.20;;;;;;1861153;76;21130;-86
2022/06/19 09:46:54;;;;;;;2.35;1.37;;;34.50;66.00;;;;;;1855203;76;21214;-85
2022/06/19 09:49:28;;;;;;;6.97;2.15;;;34.50;65.80;;;;;;1869027;76;21143;-84
2022/06/19 09:52:02;;;;;;;7.05;1.70;;;34.50;65.80;;;;;;1891146;74;21199;-85
2022/06/19 09:54:35;;;;;;;3.77;1.92;;;34.50;66.90;;;;;;1885779;76;21649;-84
2022/06/19 09:57:09;;;;;;;2.40;1.50;;;34.50;66.50;;;;;;1882808;76;21167;-84
2022/06/19 09:59:46;;;;;;;2.90;1.65;;;34.40;65.00;;;;;;1898732;74;21134;-85
2022/06/19 10:02:19;;;;;;;4.90;2.00;;;34.40;64.50;;;;;;1893528;74;21233;-85
2022/06/19 10:04:53;;;;;;;5.55;2.08;;;34.40;65.50;;;;;;1897586;74;21209;-85
2022/06/19 10:07:26;;;;;;;5.22;2.17;;;34.40;65.50;;;;;;1887808;74;21147;-84
2022/06/19 10:09:59;;;;;;;5.50;1.90;;;34.40;65.50;;;;;;1866144;76;21116;-84
2022/06/19 10:12:33;;;;;;;3.47;1.45;;;34.40;64.90;;;;;;1889786;74;21082;-84
2022/06/19 10:15:07;;;;;;;5.15;1.85;;;34.40;64.40;;;;;;1863479;76;21115;-85
2022/06/19 10:17:40;;;;;;;3.65;1.90;;;34.40;64.30;;;;;;1895348;74;21175;-84
2022/06/19 10:20:15;;;;;;;2.67;1.70;;;34.40;64.00;;;;;;1863552;76;21268;-84
2022/06/19 10:22:48;;;;;;;4.40;1.50;;;34.40;64.70;;;;;;1895811;74;21120;-84
2022/06/19 10:25:22;;;;;;;2.87;1.47;;;34.50;64.10;;;;;;1882464;74;21645;-85
2022/06/19 10:27:56;;;;;;;3.55;1.52;;;34.50;64.70;;;;;;1888140;74;21211;-86
2022/06/19 10:30:30;;;;;;;3.37;1.65;;;34.50;64.20;;;;;;1860966;76;21190;-87
2022/06/19 10:33:03;;;;;;;2.52;1.35;;;34.50;63.90;;;;;;1858811;76;21592;-83
2022/06/19 10:35:37;;;;;;;3.30;1.40;;;34.50;64.50;;;;;;1864773;76;21114;-83
2022/06/19 10:38:11;;;;;;;4.53;1.67;;;34.40;64.40;;;;;;1887877;75;21151;-83
2022/06/19 10:40:44;;;;;;;4.40;1.70;;;34.40;65.10;;;;;;1900880;75;21179;-83
2022/06/19 10:43:18;;;;;;;2.90;1.70;;;34.40;65.10;;;;;;1893356;74;21108;-84
2022/06/19 10:45:51;;;;;;;5.85;1.47;;;34.40;65.60;;;;;;1885400;76;21101;-83
2022/06/19 10:48:25;;;;;;;4.83;1.75;;;34.30;65.30;;;;;;1892265;75;21237;-83
2022/06/19 10:51:00;;;;;;;6.62;3.08;;;34.20;65.50;;;;;;1858923;76;21143;-84
2022/06/19 10:53:34;;;;;;;5.45;2.33;;;34.20;65.90;;;;;;1857066;76;21209;-84
2022/06/19 10:56:07;;;;;;;4.08;2.15;;;34.10;66.10;;;;;;1866659;76;21101;-84
2022/06/19 10:58:39;;;;;;;6.08;2.22;;;34.10;66.20;;;;;;1890491;75;21612;-84
2022/06/19 11:04:26;;;;;;;5.42;1.92;;;34.00;66.20;;;;;;1867097;75;21199;-83
2022/06/19 11:07:19;;;;;;;5.72;2.10;;;34.00;66.50;;;;;;1844712;76;21123;-84
2022/06/19 11:10:11;;;;;;;5.20;2.62;;;33.90;66.60;;;;;;1857884;76;21136;-84
2022/06/19 11:13:03;;;;;;;10.00;4.05;;;33.90;66.60;;;;;;1852557;76;21182;-84
2022/06/19 11:15:55;;;;;;;11.38;3.25;;;33.90;67.60;;;;;;1847870;76;21223;-84
2022/06/19 11:18:51;;;;;;;9.38;3.52;;;33.90;67.40;;;;;;1812592;76;21078;-84
2022/06/19 11:21:25;;;;;;;6.28;2.72;;;33.80;67.60;;;;;;1859568;76;21440;-84
2022/06/19 11:23:58;;;;;;;8.63;4.50;;;33.90;68.30;;;;;;1904766;74;21061;-84
2022/06/19 11:26:32;;;;;;;9.78;3.83;;;33.80;68.60;;;;;;1878542;76;21138;-84
2022/06/19 11:29:05;;;;;;;6.35;4.70;;;33.80;68.80;;;;;;1855310;77;21614;-84
2022/06/19 11:31:40;;;;;;;10.72;4.83;;;33.70;68.50;;;;;;1861706;76;21248;-84
2022/06/19 11:34:43;;;;;;;9.35;4.80;;;33.60;68.40;;;;;;1884338;76;21125;-84
2022/06/19 11:36:45;;;;;;;10.20;4.90;;;33.60;68.70;;;;;;1862294;76;21085;-84
2022/06/19 11:39:20;;;;;;;9.55;6.17;;;33.60;69.50;;;;;;1865606;76;21221;-84
2022/06/19 11:41:51;;;;;;;10.13;5.17;;;33.50;69.70;;;;;;1899381;74;21595;-84
2022/06/19 11:44:23;;;;;;;10.15;4.00;;;33.50;71.20;;;;;;1858212;76;21171;-82
2022/06/19 11:46:57;;;;;;;7.67;3.00;;;33.40;73.60;;;;;;1890456;74;21599;-86
2022/06/19 11:49:30;;;;;;;7.25;3.58;;;33.10;75.20;;;;;;1875459;75;21147;-82
2022/06/19 11:52:05;;;;;;;9.48;2.47;;;32.60;77.10;;;;;;1867163;75;21124;-86
2022/06/19 11:54:38;;;;;;;6.12;2.50;;;32.30;78.10;;;;;;1859047;75;21221;-83
2022/06/19 11:57:11;;;;;;;3.90;2.02;;;31.90;79.30;;;;;;1881206;76;21217;-83
2022/06/19 11:59:45;;;;;;;4.50;2.12;;;31.60;80.40;;;;;;1855634;76;21247;-82
2022/06/19 12:02:18;;;;;;;7.72;2.10;;;31.40;81.10;;;;;;1867811;76;21213;-84
2022/06/19 12:04:53;;;;;;;8.50;1.82;;;31.20;81.60;;;;;;1827180;77;21528;-83
2022/06/19 12:07:27;;;;;;;5.53;1.70;;;31.00;83.00;;;;;;1861126;76;21685;-85
2022/06/19 12:10:01;;;;;;;4.53;1.65;;;31.00;82.50;;;;;;1861227;77;21151;-84
2022/06/19 12:12:35;;;;;;;4.03;1.87;;;30.90;83.00;;;;;;1894526;76;21147;-84
2022/06/19 12:15:08;;;;;;;5.87;1.77;;;30.80;82.90;;;;;;1836905;75;21175;-84
2022/06/19 12:17:42;;;;;;;3.55;1.37;;;30.60;80.30;;;;;;1866888;75;21162;-84
2022/06/19 12:20:15;;;;;;;6.20;1.72;;;30.60;81.70;;;;;;1863270;76;21216;-83
2022/06/19 12:22:50;;;;;;;4.67;1.95;;;30.60;80.90;;;;;;1840306;77;21181;-83
2022/06/19 12:25:23;;;;;;;3.22;1.70;;;30.60;80.20;;;;;;1867356;75;21233;-84
2022/06/19 12:27:58;;;;;;;4.20;1.30;;;30.60;80.00;;;;;;1844234;77;21186;-83
2022/06/19 12:30:33;;;;;;;2.02;1.12;;;30.50;79.90;;;;;;1834991;77;21085;-84
2022/06/19 12:33:07;;;;;;;2.58;1.00;;;30.60;78.90;;;;;;1862077;77;21609;-83
2022/06/19 12:35:41;;;;;;;6.92;2.05;;;30.60;77.90;;;;;;1843874;77;21135;-83
2022/06/19 12:38:14;;;;;;;3.98;1.70;;;30.60;79.10;;;;;;1859965;77;21147;-83
2022/06/19 12:40:47;;;;;;;9.85;3.17;;;30.50;85.20;;;;;;1840615;77;21166;-83
2022/06/19 12:43:23;;;;;;;7.08;2.30;;;30.20;88.10;;;;;;1884755;75;21151;-83
2022/06/19 12:45:58;;;;;;;12.90;3.17;;;29.90;88.20;;;;;;1874897;75;21191;-82
2022/06/19 12:48:31;;;;;;;7.25;1.90;;;29.70;90.20;;;;;;1879471;74;21139;-85
2022/06/19 12:51:09;;;;;;;4.37;1.30;;;29.50;90.70;;;;;;1900984;74;21177;-84
2022/06/19 12:53:42;;;;;;;4.92;1.72;;;29.40;90.10;;;;;;1889841;74;21117;-84
2022/06/19 12:56:17;;;;;;;4.20;1.60;;;29.30;91.00;;;;;;1862240;76;21119;-84
2022/06/19 12:58:50;;;;;;;5.53;1.30;;;29.20;91.50;;;;;;1886708;74;21151;-84
2022/06/19 13:01:24;;;;;;;4.00;1.50;;;29.20;92.10;;;;;;1861355;76;21127;-84
2022/06/19 13:03:57;;;;;;;5.55;1.80;;;29.20;92.00;;;;;;1860064;76;21684;-83
2022/06/19 13:06:31;;;;;;;5.33;1.60;;;29.10;91.80;;;;;;1861974;76;21155;-84
2022/06/19 13:09:05;;;;;;;3.75;1.50;;;29.10;92.20;;;;;;1896526;74;21107;-84
2022/06/19 13:11:39;;;;;;;5.62;1.57;;;29.00;92.40;;;;;;1889101;74;21164;-83
2022/06/19 13:14:12;;;;;;;3.65;1.55;;;28.90;93.00;;;;;;1865106;76;21115;-83
2022/06/19 13:16:46;;;;;;;3.45;1.47;;;29.00;93.60;;;;;;1881211;74;21145;-83
2022/06/19 13:19:19;;;;;;;3.75;1.40;;;29.00;93.80;;;;;;1881134;75;21127;-83
2022/06/19 13:21:52;;;;;;;3.90;1.37;;;29.00;94.10;;;;;;1871783;75;21162;-83
2022/06/19 13:24:26;;;;;;;3.08;1.30;;;29.00;93.40;;;;;;1876317;75;21120;-85
2022/06/19 13:29:34;;;;;;;3.75;0.93;;;29.00;93.30;;;;;;1883266;75;21153;-83
2022/06/19 13:32:07;;;;;;;4.62;1.05;;;28.90;93.60;;;;;;1912290;74;21099;-83